sensor_id;sensor_type;location;lat;lon;timestamp;temperature;humidity
32470;DHT22;18925;48.356;10.864;2022-12-18T00:00:03;-4.10;99.90
32470;DHT22;18925;48.356;10.864;2022-12-18T00:00:43;-4.00;99.90
32470;DHT22;18925;48.356;10.864;2022-12-18T00:01:20;-4.00;99.90
32470;DHT22;18925;48.356;10.864;2022-12-18T00:01:52;-4.00;99.90
32470;DHT22;18925;48.356;10.864;2022-12-18T00:02:23;-4.00;99.90
32470;DHT22;18925;48.356;10.864;2022-12-18T00:02:53;-4.00;99.90
32470;DHT22;18925;48.356;10.864;2022-12-18T00:03:25;-4.00;99.90
32470;DHT22;18925;48.356;10.864;2022-12-18T00:03:56;-4.00;99.90
32470;DHT22;18925;48.356;10.864;2022-12-18T00:04:27;-4.00;99.90
32470;DHT22;18925;48.356;10.864;2022-12-18T00:04:59;-4.00;99.90
32470;DHT22;18925;48.356;10.864;2022-12-18T00:05:30;-4.00;99.90
32470;DHT22;18925;48.356;10.864;2022-12-18T00:06:01;-4.00;99.90
32470;DHT22;18925;48.356;10.864;2022-12-18T00:06:33;-4.00;99.90
32470;DHT22;18925;48.356;10.864;2022-12-18T00:07:05;-3.90;99.90
32470;DHT22;18925;48.356;10.864;2022-12-18T00:07:35;-4.00;99.90
32470;DHT22;18925;48.356;10.864;2022-12-18T00:08:06;-4.00;99.90
32470;DHT22;18925;48.356;10.864;2022-12-18T00:08:37;-4.00;99.90
32470;DHT22;18925;48.356;10.864;2022-12-18T00:09:09;-3.90;99.90
32470;DHT22;18925;48.356;10.864;2022-12-18T00:09:39;-3.90;99.90
32470;DHT22;18925;48.356;10.864;2022-12-18T00:10:10;-3.90;99.90
32470;DHT22;18925;48.356;10.864;2022-12-18T00:10:41;-3.90;99.90
32470;DHT22;18925;48.356;10.864;2022-12-18T00:11:14;-3.90;99.90
32470;DHT22;18925;48.356;10.864;2022-12-18T00:11:45;-3.90;99.90
32470;DHT22;18925;48.356;10.864;2022-12-18T00:12:16;-3.90;99.90
32470;DHT22;18925;48.356;10.864;2022-12-18T00:12:46;-3.90;99.90
32470;DHT22;18925;48.356;10.864;2022-12-18T00:13:17;-3.90;99.90
32470;DHT22;18925;48.356;10.864;2022-12-18T00:13:48;-3.90;99.90
32470;DHT22;18925;48.356;10.864;2022-12-18T00:14:19;-3.90;99.90
32470;DHT22;18925;48.356;10.864;2022-12-18T00:14:50;-3.90;99.90
32470;DHT22;18925;48.356;10.864;2022-12-18T00:15:20;-3.90;99.90
32470;DHT22;18925;48.356;10.864;2022-12-18T00:15:51;-3.90;99.90
32470;DHT22;18925;48.356;10.864;2022-12-18T00:16:23;-4.00;99.90
32470;DHT22;18925;48.356;10.864;2022-12-18T00:16:54;-4.00;99.90
32470;DHT22;18925;48.356;10.864;2022-12-18T00:17:25;-4.00;99.90
32470;DHT22;18925;48.356;10.864;2022-12-18T00:17:56;-4.00;99.90
32470;DHT22;18925;48.356;10.864;2022-12-18T00:18:26;-3.90;99.90
32470;DHT22;18925;48.356;10.864;2022-12-18T00:18:57;-3.90;99.90
32470;DHT22;18925;48.356;10.864;2022-12-18T00:19:28;-4.00;99.90
32470;DHT22;18925;48.356;10.864;2022-12-18T00:19:58;-4.00;99.90
32470;DHT22;18925;48.356;10.864;2022-12-18T00:20:29;-4.00;99.90
32470;DHT22;18925;48.356;10.864;2022-12-18T00:21:03;-4.00;99.90
32470;DHT22;18925;48.356;10.864;2022-12-18T00:21:34;-4.00;99.90
32470;DHT22;18925;48.356;10.864;2022-12-18T00:22:04;-3.90;99.90
32470;DHT22;18925;48.356;10.864;2022-12-18T00:22:36;-4.00;99.90
32470;DHT22;18925;48.356;10.864;2022-12-18T00:23:07;-3.90;99.90
32470;DHT22;18925;48.356;10.864;2022-12-18T00:23:39;-3.90;99.90
32470;DHT22;18925;48.356;10.864;2022-12-18T00:24:10;-3.90;99.90
32470;DHT22;18925;48.356;10.864;2022-12-18T00:24:41;-4.00;99.90
32470;DHT22;18925;48.356;10.864;2022-12-18T00:25:12;-4.00;99.90
32470;DHT22;18925;48.356;10.864;2022-12-18T00:25:42;-4.00;99.90
32470;DHT22;18925;48.356;10.864;2022-12-18T00:26:21;-4.00;99.90
32470;DHT22;18925;48.356;10.864;2022-12-18T00:26:53;-4.00;99.90
32470;DHT22;18925;48.356;10.864;2022-12-18T00:27:23;-4.00;99.90
32470;DHT22;18925;48.356;10.864;2022-12-18T00:27:54;-4.00;99.90
32470;DHT22;18925;48.356;10.864;2022-12-18T00:28:25;-3.90;99.90
32470;DHT22;18925;48.356;10.864;2022-12-18T00:28:59;-3.90;99.90
32470;DHT22;18925;48.356;10.864;2022-12-18T00:29:29;-3.90;99.90
32470;DHT22;18925;48.356;10.864;2022-12-18T00:30:00;-3.90;99.90
32470;DHT22;18925;48.356;10.864;2022-12-18T00:30:31;-3.90;99.90
32470;DHT22;18925;48.356;10.864;2022-12-18T00:31:03;-4.00;99.90
32470;DHT22;18925;48.356;10.864;2022-12-18T00:31:35;-3.90;99.90
32470;DHT22;18925;48.356;10.864;2022-12-18T00:32:06;-4.00;99.90
32470;DHT22;18925;48.356;10.864;2022-12-18T00:32:37;-3.90;99.90
32470;DHT22;18925;48.356;10.864;2022-12-18T00:33:07;-4.00;99.90
32470;DHT22;18925;48.356;10.864;2022-12-18T00:33:38;-4.00;99.90
32470;DHT22;18925;48.356;10.864;2022-12-18T00:34:11;-4.00;99.90
32470;DHT22;18925;48.356;10.864;2022-12-18T00:34:42;-4.00;99.90
32470;DHT22;18925;48.356;10.864;2022-12-18T00:35:12;-4.00;99.90
32470;DHT22;18925;48.356;10.864;2022-12-18T00:35:43;-4.00;99.90
32470;DHT22;18925;48.356;10.864;2022-12-18T00:36:17;-4.00;99.90
32470;DHT22;18925;48.356;10.864;2022-12-18T00:36:48;-4.00;99.90
32470;DHT22;18925;48.356;10.864;2022-12-18T00:37:19;-4.00;99.90
32470;DHT22;18925;48.356;10.864;2022-12-18T00:37:49;-4.00;99.90
32470;DHT22;18925;48.356;10.864;2022-12-18T00:38:20;-4.00;99.90
32470;DHT22;18925;48.356;10.864;2022-12-18T00:38:52;-3.90;99.90
32470;DHT22;18925;48.356;10.864;2022-12-18T00:39:23;-3.90;99.90
32470;DHT22;18925;48.356;10.864;2022-12-18T00:39:53;-3.90;99.90
32470;DHT22;18925;48.356;10.864;2022-12-18T00:40:24;-3.90;99.90
32470;DHT22;18925;48.356;10.864;2022-12-18T00:40:55;-3.90;99.90
32470;DHT22;18925;48.356;10.864;2022-12-18T00:41:26;-3.80;99.90
32470;DHT22;18925;48.356;10.864;2022-12-18T00:42:15;-3.80;99.90
32470;DHT22;18925;48.356;10.864;2022-12-18T00:43:04;-3.80;99.90
32470;DHT22;18925;48.356;10.864;2022-12-18T00:43:36;-3.80;99.90
32470;DHT22;18925;48.356;10.864;2022-12-18T00:44:09;-3.80;99.90
32470;DHT22;18925;48.356;10.864;2022-12-18T00:44:40;-3.80;99.90
32470;DHT22;18925;48.356;10.864;2022-12-18T00:45:11;-3.80;99.90
32470;DHT22;18925;48.356;10.864;2022-12-18T00:45:42;-3.80;99.90
32470;DHT22;18925;48.356;10.864;2022-12-18T00:46:13;-3.90;99.90
32470;DHT22;18925;48.356;10.864;2022-12-18T00:46:44;-3.90;99.90
32470;DHT22;18925;48.356;10.864;2022-12-18T00:47:15;-3.90;99.90
32470;DHT22;18925;48.356;10.864;2022-12-18T00:47:45;-3.90;99.90
32470;DHT22;18925;48.356;10.864;2022-12-18T00:48:17;-3.90;99.90
32470;DHT22;18925;48.356;10.864;2022-12-18T00:48:47;-3.90;99.90
32470;DHT22;18925;48.356;10.864;2022-12-18T00:49:19;-3.90;99.90
32470;DHT22;18925;48.356;10.864;2022-12-18T00:49:50;-3.90;99.90
32470;DHT22;18925;48.356;10.864;2022-12-18T00:50:21;-3.90;99.90
32470;DHT22;18925;48.356;10.864;2022-12-18T00:50:52;-3.90;99.90
32470;DHT22;18925;48.356;10.864;2022-12-18T00:51:23;-3.90;99.90
32470;DHT22;18925;48.356;10.864;2022-12-18T00:51:55;-3.90;99.90
32470;DHT22;18925;48.356;10.864;2022-12-18T00:52:26;-3.90;99.90
32470;DHT22;18925;48.356;10.864;2022-12-18T00:52:57;-3.90;99.90
32470;DHT22;18925;48.356;10.864;2022-12-18T00:53:27;-3.90;99.90
32470;DHT22;18925;48.356;10.864;2022-12-18T00:53:58;-3.90;99.90
32470;DHT22;18925;48.356;10.864;2022-12-18T00:54:29;-3.90;99.90
32470;DHT22;18925;48.356;10.864;2022-12-18T00:54:59;-3.90;99.90
32470;DHT22;18925;48.356;10.864;2022-12-18T00:55:31;-3.90;99.90
32470;DHT22;18925;48.356;10.864;2022-12-18T00:56:02;-3.90;99.90
32470;DHT22;18925;48.356;10.864;2022-12-18T00:56:35;-4.00;99.90
32470;DHT22;18925;48.356;10.864;2022-12-18T00:57:07;-4.00;99.90
32470;DHT22;18925;48.356;10.864;2022-12-18T00:57:37;-3.90;99.90
32470;DHT22;18925;48.356;10.864;2022-12-18T00:58:09;-3.90;99.90
32470;DHT22;18925;48.356;10.864;2022-12-18T00:58:40;-3.90;99.90
32470;DHT22;18925;48.356;10.864;2022-12-18T00:59:11;-3.90;99.90
32470;DHT22;18925;48.356;10.864;2022-12-18T00:59:42;-3.90;99.90
32470;DHT22;18925;48.356;10.864;2022-12-18T01:00:14;-3.90;99.90
32470;DHT22;18925;48.356;10.864;2022-12-18T01:00:45;-3.90;99.90
32470;DHT22;18925;48.356;10.864;2022-12-18T01:01:16;-3.90;99.90
32470;DHT22;18925;48.356;10.864;2022-12-18T01:01:47;-3.90;99.90
32470;DHT22;18925;48.356;10.864;2022-12-18T01:02:17;-3.90;99.90
32470;DHT22;18925;48.356;10.864;2022-12-18T01:02:48;-3.90;99.90
32470;DHT22;18925;48.356;10.864;2022-12-18T01:03:19;-3.90;99.90
32470;DHT22;18925;48.356;10.864;2022-12-18T01:03:50;-3.90;99.90
32470;DHT22;18925;48.356;10.864;2022-12-18T01:04:21;-3.90;99.90
32470;DHT22;18925;48.356;10.864;2022-12-18T01:04:51;-3.90;99.90
32470;DHT22;18925;48.356;10.864;2022-12-18T01:05:22;-3.90;99.90
32470;DHT22;18925;48.356;10.864;2022-12-18T01:05:53;-3.90;99.90
32470;DHT22;18925;48.356;10.864;2022-12-18T01:06:23;-3.80;99.90
32470;DHT22;18925;48.356;10.864;2022-12-18T01:06:54;-3.90;99.90
32470;DHT22;18925;48.356;10.864;2022-12-18T01:07:25;-3.80;99.90
32470;DHT22;18925;48.356;10.864;2022-12-18T01:07:56;-3.90;99.90
32470;DHT22;18925;48.356;10.864;2022-12-18T01:08:26;-3.90;99.90
32470;DHT22;18925;48.356;10.864;2022-12-18T01:08:57;-3.90;99.90
32470;DHT22;18925;48.356;10.864;2022-12-18T01:09:28;-3.90;99.90
32470;DHT22;18925;48.356;10.864;2022-12-18T01:09:59;-3.90;99.90
32470;DHT22;18925;48.356;10.864;2022-12-18T01:10:29;-3.90;99.90
32470;DHT22;18925;48.356;10.864;2022-12-18T01:11:01;-3.90;99.90
32470;DHT22;18925;48.356;10.864;2022-12-18T01:11:31;-3.90;99.90
32470;DHT22;18925;48.356;10.864;2022-12-18T01:12:02;-3.90;99.90
32470;DHT22;18925;48.356;10.864;2022-12-18T01:12:33;-3.90;99.90
32470;DHT22;18925;48.356;10.864;2022-12-18T01:13:04;-4.00;99.90
32470;DHT22;18925;48.356;10.864;2022-12-18T01:13:35;-3.90;99.90
32470;DHT22;18925;48.356;10.864;2022-12-18T01:14:06;-3.90;99.90
32470;DHT22;18925;48.356;10.864;2022-12-18T01:14:37;-3.90;99.90
32470;DHT22;18925;48.356;10.864;2022-12-18T01:15:10;-3.90;99.90
32470;DHT22;18925;48.356;10.864;2022-12-18T01:15:50;-3.80;99.90
32470;DHT22;18925;48.356;10.864;2022-12-18T01:16:21;-3.90;99.90
32470;DHT22;18925;48.356;10.864;2022-12-18T01:16:52;-3.80;99.90
32470;DHT22;18925;48.356;10.864;2022-12-18T01:17:23;-3.80;99.90
32470;DHT22;18925;48.356;10.864;2022-12-18T01:17:53;-3.80;99.90
32470;DHT22;18925;48.356;10.864;2022-12-18T01:18:24;-3.80;99.90
32470;DHT22;18925;48.356;10.864;2022-12-18T01:18:55;-3.90;99.90
32470;DHT22;18925;48.356;10.864;2022-12-18T01:19:26;-3.90;99.90
32470;DHT22;18925;48.356;10.864;2022-12-18T01:19:56;-3.90;99.90
32470;DHT22;18925;48.356;10.864;2022-12-18T01:20:27;-3.90;99.90
32470;DHT22;18925;48.356;10.864;2022-12-18T01:20:58;-3.90;99.90
32470;DHT22;18925;48.356;10.864;2022-12-18T01:21:29;-3.90;99.90
32470;DHT22;18925;48.356;10.864;2022-12-18T01:21:59;-3.90;99.90
32470;DHT22;18925;48.356;10.864;2022-12-18T01:22:30;-3.90;99.90
32470;DHT22;18925;48.356;10.864;2022-12-18T01:23:00;-3.90;99.90
32470;DHT22;18925;48.356;10.864;2022-12-18T01:23:31;-3.90;99.90
32470;DHT22;18925;48.356;10.864;2022-12-18T01:24:02;-3.90;99.90
32470;DHT22;18925;48.356;10.864;2022-12-18T01:24:33;-3.90;99.90
32470;DHT22;18925;48.356;10.864;2022-12-18T01:25:04;-3.90;99.90
32470;DHT22;18925;48.356;10.864;2022-12-18T01:25:36;-4.00;99.90
32470;DHT22;18925;48.356;10.864;2022-12-18T01:26:08;-4.00;99.90
32470;DHT22;18925;48.356;10.864;2022-12-18T01:26:40;-4.00;99.90
32470;DHT22;18925;48.356;10.864;2022-12-18T01:27:11;-4.00;99.90
32470;DHT22;18925;48.356;10.864;2022-12-18T01:27:42;-4.00;99.90
32470;DHT22;18925;48.356;10.864;2022-12-18T01:28:13;-4.00;99.90
32470;DHT22;18925;48.356;10.864;2022-12-18T01:28:44;-4.00;99.90
32470;DHT22;18925;48.356;10.864;2022-12-18T01:29:15;-4.00;99.90
32470;DHT22;18925;48.356;10.864;2022-12-18T01:29:45;-4.10;99.90
32470;DHT22;18925;48.356;10.864;2022-12-18T01:30:16;-4.10;99.90
32470;DHT22;18925;48.356;10.864;2022-12-18T01:30:46;-4.10;99.90
32470;DHT22;18925;48.356;10.864;2022-12-18T01:31:20;-4.10;99.90
32470;DHT22;18925;48.356;10.864;2022-12-18T01:31:50;-4.10;99.90
32470;DHT22;18925;48.356;10.864;2022-12-18T01:32:22;-4.10;99.90
32470;DHT22;18925;48.356;10.864;2022-12-18T01:32:52;-4.10;99.90
32470;DHT22;18925;48.356;10.864;2022-12-18T01:33:23;-4.10;99.90
32470;DHT22;18925;48.356;10.864;2022-12-18T01:33:55;-4.10;99.90
32470;DHT22;18925;48.356;10.864;2022-12-18T01:34:26;-4.10;99.90
32470;DHT22;18925;48.356;10.864;2022-12-18T01:34:56;-4.10;99.90
32470;DHT22;18925;48.356;10.864;2022-12-18T01:35:27;-4.10;99.90
32470;DHT22;18925;48.356;10.864;2022-12-18T01:35:58;-4.20;99.90
32470;DHT22;18925;48.356;10.864;2022-12-18T01:36:31;-4.10;99.90
32470;DHT22;18925;48.356;10.864;2022-12-18T01:37:03;-4.10;99.90
32470;DHT22;18925;48.356;10.864;2022-12-18T01:37:34;-4.10;99.90
32470;DHT22;18925;48.356;10.864;2022-12-18T01:38:04;-4.10;99.90
32470;DHT22;18925;48.356;10.864;2022-12-18T01:38:35;-4.10;99.90
32470;DHT22;18925;48.356;10.864;2022-12-18T01:39:10;-4.10;99.90
32470;DHT22;18925;48.356;10.864;2022-12-18T01:39:41;-4.10;99.90
32470;DHT22;18925;48.356;10.864;2022-12-18T01:40:12;-4.10;99.90
32470;DHT22;18925;48.356;10.864;2022-12-18T01:40:43;-4.10;99.90
32470;DHT22;18925;48.356;10.864;2022-12-18T01:41:15;-4.10;99.90
32470;DHT22;18925;48.356;10.864;2022-12-18T01:41:46;-4.10;99.90
32470;DHT22;18925;48.356;10.864;2022-12-18T01:42:35;-4.10;99.90
32470;DHT22;18925;48.356;10.864;2022-12-18T01:43:09;-4.10;99.90
32470;DHT22;18925;48.356;10.864;2022-12-18T01:43:53;-4.10;99.90
32470;DHT22;18925;48.356;10.864;2022-12-18T01:45:28;-4.10;99.90
32470;DHT22;18925;48.356;10.864;2022-12-18T01:46:00;-4.10;99.90
32470;DHT22;18925;48.356;10.864;2022-12-18T01:46:30;-4.10;99.90
32470;DHT22;18925;48.356;10.864;2022-12-18T01:47:01;-4.10;99.90
32470;DHT22;18925;48.356;10.864;2022-12-18T01:48:14;-4.10;99.90
32470;DHT22;18925;48.356;10.864;2022-12-18T01:48:48;-4.20;99.90
32470;DHT22;18925;48.356;10.864;2022-12-18T01:49:19;-4.20;99.90
32470;DHT22;18925;48.356;10.864;2022-12-18T01:49:50;-4.20;99.90
32470;DHT22;18925;48.356;10.864;2022-12-18T01:50:57;-4.20;99.90
32470;DHT22;18925;48.356;10.864;2022-12-18T01:51:29;-4.30;99.90
32470;DHT22;18925;48.356;10.864;2022-12-18T01:52:01;-4.30;99.90
32470;DHT22;18925;48.356;10.864;2022-12-18T01:52:32;-4.40;99.90
32470;DHT22;18925;48.356;10.864;2022-12-18T01:53:11;-4.40;99.90
32470;DHT22;18925;48.356;10.864;2022-12-18T01:53:44;-4.40;99.90
32470;DHT22;18925;48.356;10.864;2022-12-18T01:54:15;-4.40;99.90
32470;DHT22;18925;48.356;10.864;2022-12-18T01:54:47;-4.30;99.90
32470;DHT22;18925;48.356;10.864;2022-12-18T01:55:20;-4.30;99.90
32470;DHT22;18925;48.356;10.864;2022-12-18T01:55:56;-4.30;99.90
32470;DHT22;18925;48.356;10.864;2022-12-18T01:56:27;-4.30;99.90
32470;DHT22;18925;48.356;10.864;2022-12-18T01:56:59;-4.40;99.90
32470;DHT22;18925;48.356;10.864;2022-12-18T01:57:31;-4.40;99.90
32470;DHT22;18925;48.356;10.864;2022-12-18T01:58:03;-4.40;99.90
32470;DHT22;18925;48.356;10.864;2022-12-18T01:59:01;-4.40;99.90
32470;DHT22;18925;48.356;10.864;2022-12-18T01:59:33;-4.40;99.90
32470;DHT22;18925;48.356;10.864;2022-12-18T02:00:12;-4.40;99.90
32470;DHT22;18925;48.356;10.864;2022-12-18T02:00:43;-4.30;99.90
32470;DHT22;18925;48.356;10.864;2022-12-18T02:01:14;-4.30;99.90
32470;DHT22;18925;48.356;10.864;2022-12-18T02:01:45;-4.30;99.90
32470;DHT22;18925;48.356;10.864;2022-12-18T02:02:16;-4.20;99.90
32470;DHT22;18925;48.356;10.864;2022-12-18T02:02:48;-4.20;99.90
32470;DHT22;18925;48.356;10.864;2022-12-18T02:03:18;-4.20;99.90
32470;DHT22;18925;48.356;10.864;2022-12-18T02:03:49;-4.20;99.90
32470;DHT22;18925;48.356;10.864;2022-12-18T02:04:25;-4.30;99.90
32470;DHT22;18925;48.356;10.864;2022-12-18T02:04:58;-4.20;99.90
32470;DHT22;18925;48.356;10.864;2022-12-18T02:06:36;-4.30;99.90
32470;DHT22;18925;48.356;10.864;2022-12-18T02:08:22;-4.40;99.90
32470;DHT22;18925;48.356;10.864;2022-12-18T02:09:04;-4.40;99.90
32470;DHT22;18925;48.356;10.864;2022-12-18T02:12:16;-4.40;99.90
32470;DHT22;18925;48.356;10.864;2022-12-18T02:15:10;-4.50;99.90
32470;DHT22;18925;48.356;10.864;2022-12-18T02:17:22;-4.40;99.90
32470;DHT22;18925;48.356;10.864;2022-12-18T02:18:05;-4.50;99.90
32470;DHT22;18925;48.356;10.864;2022-12-18T02:18:41;-4.50;99.90
32470;DHT22;18925;48.356;10.864;2022-12-18T02:20:28;-4.40;99.90
32470;DHT22;18925;48.356;10.864;2022-12-18T02:21:11;-4.40;99.90
32470;DHT22;18925;48.356;10.864;2022-12-18T02:22:24;-4.30;99.90
32470;DHT22;18925;48.356;10.864;2022-12-18T02:24:35;-4.40;99.90
32470;DHT22;18925;48.356;10.864;2022-12-18T02:26:27;-4.40;99.90
32470;DHT22;18925;48.356;10.864;2022-12-18T02:27:05;-4.30;99.90
32470;DHT22;18925;48.356;10.864;2022-12-18T02:27:37;-4.40;99.90
32470;DHT22;18925;48.356;10.864;2022-12-18T02:28:12;-4.40;99.90
32470;DHT22;18925;48.356;10.864;2022-12-18T02:28:54;-4.40;99.90
32470;DHT22;18925;48.356;10.864;2022-12-18T02:29:34;-4.40;99.90
32470;DHT22;18925;48.356;10.864;2022-12-18T02:30:08;-4.40;99.90
32470;DHT22;18925;48.356;10.864;2022-12-18T02:30:39;-4.40;99.90
32470;DHT22;18925;48.356;10.864;2022-12-18T02:31:16;-4.40;99.90
32470;DHT22;18925;48.356;10.864;2022-12-18T02:31:56;-4.50;99.90
32470;DHT22;18925;48.356;10.864;2022-12-18T02:32:31;-4.40;99.90
32470;DHT22;18925;48.356;10.864;2022-12-18T02:33:05;-4.40;99.90
32470;DHT22;18925;48.356;10.864;2022-12-18T02:33:38;-4.40;99.90
32470;DHT22;18925;48.356;10.864;2022-12-18T02:34:10;-4.40;99.90
32470;DHT22;18925;48.356;10.864;2022-12-18T02:34:43;-4.40;99.90
32470;DHT22;18925;48.356;10.864;2022-12-18T02:35:19;-4.40;99.90
32470;DHT22;18925;48.356;10.864;2022-12-18T02:35:51;-4.40;99.90
32470;DHT22;18925;48.356;10.864;2022-12-18T02:36:24;-4.40;99.90
32470;DHT22;18925;48.356;10.864;2022-12-18T02:36:57;-4.40;99.90
32470;DHT22;18925;48.356;10.864;2022-12-18T02:37:30;-4.40;99.90
32470;DHT22;18925;48.356;10.864;2022-12-18T02:38:02;-4.50;99.90
32470;DHT22;18925;48.356;10.864;2022-12-18T02:38:33;-4.40;99.90
32470;DHT22;18925;48.356;10.864;2022-12-18T02:39:07;-4.40;99.90
32470;DHT22;18925;48.356;10.864;2022-12-18T02:39:42;-4.60;99.90
32470;DHT22;18925;48.356;10.864;2022-12-18T02:40:15;-4.60;99.90
32470;DHT22;18925;48.356;10.864;2022-12-18T02:40:48;-4.60;99.90
32470;DHT22;18925;48.356;10.864;2022-12-18T02:41:23;-4.50;99.90
32470;DHT22;18925;48.356;10.864;2022-12-18T02:41:55;-4.50;99.90
32470;DHT22;18925;48.356;10.864;2022-12-18T02:42:28;-4.40;99.90
32470;DHT22;18925;48.356;10.864;2022-12-18T02:43:10;-4.50;99.90
32470;DHT22;18925;48.356;10.864;2022-12-18T02:43:47;-4.50;99.90
32470;DHT22;18925;48.356;10.864;2022-12-18T02:44:17;-4.40;99.90
32470;DHT22;18925;48.356;10.864;2022-12-18T02:44:50;-4.40;99.90
32470;DHT22;18925;48.356;10.864;2022-12-18T02:45:21;-4.40;99.90
32470;DHT22;18925;48.356;10.864;2022-12-18T02:45:55;-4.30;99.90
32470;DHT22;18925;48.356;10.864;2022-12-18T02:46:35;-4.30;99.90
32470;DHT22;18925;48.356;10.864;2022-12-18T02:47:08;-4.30;99.90
32470;DHT22;18925;48.356;10.864;2022-12-18T02:47:42;-4.40;99.90
32470;DHT22;18925;48.356;10.864;2022-12-18T02:48:14;-4.40;99.90
32470;DHT22;18925;48.356;10.864;2022-12-18T02:48:45;-4.40;99.90
32470;DHT22;18925;48.356;10.864;2022-12-18T02:50:19;-4.40;99.90
32470;DHT22;18925;48.356;10.864;2022-12-18T02:51:40;-4.40;99.90
32470;DHT22;18925;48.356;10.864;2022-12-18T02:53:57;-4.50;99.90
32470;DHT22;18925;48.356;10.864;2022-12-18T02:56:12;-4.50;99.90
32470;DHT22;18925;48.356;10.864;2022-12-18T02:56:50;-4.40;99.90
32470;DHT22;18925;48.356;10.864;2022-12-18T02:58:15;-4.40;99.90
32470;DHT22;18925;48.356;10.864;2022-12-18T02:59:40;-4.50;99.90
32470;DHT22;18925;48.356;10.864;2022-12-18T03:00:15;-4.50;99.90
32470;DHT22;18925;48.356;10.864;2022-12-18T03:01:03;-4.50;99.90
32470;DHT22;18925;48.356;10.864;2022-12-18T03:01:43;-4.50;99.90
32470;DHT22;18925;48.356;10.864;2022-12-18T03:02:23;-4.50;99.90
32470;DHT22;18925;48.356;10.864;2022-12-18T03:03:07;-4.50;99.90
32470;DHT22;18925;48.356;10.864;2022-12-18T03:03:44;-4.40;99.90
32470;DHT22;18925;48.356;10.864;2022-12-18T03:04:58;-4.50;99.90
32470;DHT22;18925;48.356;10.864;2022-12-18T03:05:50;-4.50;99.90
32470;DHT22;18925;48.356;10.864;2022-12-18T03:06:39;-4.50;99.90
32470;DHT22;18925;48.356;10.864;2022-12-18T03:07:15;-4.50;99.90
32470;DHT22;18925;48.356;10.864;2022-12-18T03:08:03;-4.40;99.90
32470;DHT22;18925;48.356;10.864;2022-12-18T03:08:43;-4.50;99.90
32470;DHT22;18925;48.356;10.864;2022-12-18T03:09:20;-4.50;99.90
32470;DHT22;18925;48.356;10.864;2022-12-18T03:09:54;-4.50;99.90
32470;DHT22;18925;48.356;10.864;2022-12-18T03:10:28;-4.50;99.90
32470;DHT22;18925;48.356;10.864;2022-12-18T03:11:03;-4.50;99.90
32470;DHT22;18925;48.356;10.864;2022-12-18T03:11:37;-4.50;99.90
32470;DHT22;18925;48.356;10.864;2022-12-18T03:12:31;-4.50;99.90
32470;DHT22;18925;48.356;10.864;2022-12-18T03:13:13;-4.50;99.90
32470;DHT22;18925;48.356;10.864;2022-12-18T03:13:54;-4.50;99.90
32470;DHT22;18925;48.356;10.864;2022-12-18T03:14:29;-4.50;99.90
32470;DHT22;18925;48.356;10.864;2022-12-18T03:15:50;-4.40;99.90
32470;DHT22;18925;48.356;10.864;2022-12-18T03:16:27;-4.40;99.90
32470;DHT22;18925;48.356;10.864;2022-12-18T03:17:05;-4.40;99.90
32470;DHT22;18925;48.356;10.864;2022-12-18T03:17:41;-4.50;99.90
32470;DHT22;18925;48.356;10.864;2022-12-18T03:18:21;-4.40;99.90
32470;DHT22;18925;48.356;10.864;2022-12-18T03:19:04;-4.50;99.90
32470;DHT22;18925;48.356;10.864;2022-12-18T03:19:38;-4.50;99.90
32470;DHT22;18925;48.356;10.864;2022-12-18T03:20:13;-4.40;99.90
32470;DHT22;18925;48.356;10.864;2022-12-18T03:20:46;-4.40;99.90
32470;DHT22;18925;48.356;10.864;2022-12-18T03:21:21;-4.40;99.90
32470;DHT22;18925;48.356;10.864;2022-12-18T03:21:56;-4.40;99.90
32470;DHT22;18925;48.356;10.864;2022-12-18T03:22:30;-4.40;99.90
32470;DHT22;18925;48.356;10.864;2022-12-18T03:23:14;-4.40;99.90
32470;DHT22;18925;48.356;10.864;2022-12-18T03:23:48;-4.40;99.90
32470;DHT22;18925;48.356;10.864;2022-12-18T03:24:21;-4.40;99.90
32470;DHT22;18925;48.356;10.864;2022-12-18T03:24:54;-4.30;99.90
32470;DHT22;18925;48.356;10.864;2022-12-18T03:25:27;-4.30;99.90
32470;DHT22;18925;48.356;10.864;2022-12-18T03:26:01;-4.40;99.90
32470;DHT22;18925;48.356;10.864;2022-12-18T03:26:35;-4.40;99.90
32470;DHT22;18925;48.356;10.864;2022-12-18T03:27:10;-4.40;99.90
32470;DHT22;18925;48.356;10.864;2022-12-18T03:27:45;-4.40;99.90
32470;DHT22;18925;48.356;10.864;2022-12-18T03:28:20;-4.40;99.90
32470;DHT22;18925;48.356;10.864;2022-12-18T03:29:40;-4.40;99.90
32470;DHT22;18925;48.356;10.864;2022-12-18T03:29:56;-4.40;99.90
32470;DHT22;18925;48.356;10.864;2022-12-18T03:30:39;-4.40;99.90
32470;DHT22;18925;48.356;10.864;2022-12-18T03:31:12;-4.40;99.90
32470;DHT22;18925;48.356;10.864;2022-12-18T03:31:49;-4.50;99.90
32470;DHT22;18925;48.356;10.864;2022-12-18T03:32:27;-4.40;99.90
32470;DHT22;18925;48.356;10.864;2022-12-18T03:33:24;-4.40;99.90
32470;DHT22;18925;48.356;10.864;2022-12-18T03:33:58;-4.40;99.90
32470;DHT22;18925;48.356;10.864;2022-12-18T03:34:34;-4.40;99.90
32470;DHT22;18925;48.356;10.864;2022-12-18T03:35:07;-4.40;99.90
32470;DHT22;18925;48.356;10.864;2022-12-18T03:35:41;-4.40;99.90
32470;DHT22;18925;48.356;10.864;2022-12-18T03:36:13;-4.40;99.90
32470;DHT22;18925;48.356;10.864;2022-12-18T03:36:44;-4.40;99.90
32470;DHT22;18925;48.356;10.864;2022-12-18T03:37:15;-4.40;99.90
32470;DHT22;18925;48.356;10.864;2022-12-18T03:37:45;-4.50;99.90
32470;DHT22;18925;48.356;10.864;2022-12-18T03:38:16;-4.40;99.90
32470;DHT22;18925;48.356;10.864;2022-12-18T03:38:47;-4.40;99.90
32470;DHT22;18925;48.356;10.864;2022-12-18T03:39:19;-4.40;99.90
32470;DHT22;18925;48.356;10.864;2022-12-18T03:39:50;-4.40;99.90
32470;DHT22;18925;48.356;10.864;2022-12-18T03:40:27;-4.50;99.90
32470;DHT22;18925;48.356;10.864;2022-12-18T03:41:53;-4.50;99.90
32470;DHT22;18925;48.356;10.864;2022-12-18T03:44:57;-4.60;99.90
32470;DHT22;18925;48.356;10.864;2022-12-18T03:45:51;-4.50;99.90
32470;DHT22;18925;48.356;10.864;2022-12-18T03:46:27;-4.60;99.90
32470;DHT22;18925;48.356;10.864;2022-12-18T03:48:59;-4.50;99.90
32470;DHT22;18925;48.356;10.864;2022-12-18T03:49:56;-4.40;99.90
32470;DHT22;18925;48.356;10.864;2022-12-18T03:51:44;-4.50;99.90
32470;DHT22;18925;48.356;10.864;2022-12-18T03:52:26;-4.40;99.90
32470;DHT22;18925;48.356;10.864;2022-12-18T03:53:03;-4.50;99.90
32470;DHT22;18925;48.356;10.864;2022-12-18T03:53:57;-4.50;99.90
32470;DHT22;18925;48.356;10.864;2022-12-18T03:54:29;-4.50;99.90
32470;DHT22;18925;48.356;10.864;2022-12-18T03:55:01;-4.60;99.90
32470;DHT22;18925;48.356;10.864;2022-12-18T03:55:34;-4.60;99.90
32470;DHT22;18925;48.356;10.864;2022-12-18T03:56:06;-4.60;99.90
32470;DHT22;18925;48.356;10.864;2022-12-18T03:56:43;-4.60;99.90
32470;DHT22;18925;48.356;10.864;2022-12-18T03:57:20;-4.60;99.90
32470;DHT22;18925;48.356;10.864;2022-12-18T03:57:52;-4.50;99.90
32470;DHT22;18925;48.356;10.864;2022-12-18T03:58:25;-4.60;99.90
32470;DHT22;18925;48.356;10.864;2022-12-18T03:58:58;-4.60;99.90